Launceston Airport, Tasmania

1:21 PM AEDT on December 21, 2014 (GMT +1100)
Summerhill | Change Station
CLOSE
Current Station
Personal Weather Station
Location: Launceston, TASMANIA
Elevation: 561 ft
Nearby Weather Stations

Elev 561 ft 41.46 °S, 147.13 °E | Updated 9 seconds ago

Clear
Clear
70.2 °F
Feels Like 77 °F
N
11.0
Wind Variable Wind from NW
Gusts 22.0 mph

Today
High -- | Low -- °F
--% Chance of Precip.
Yesterday
High -- | Low -- °F
Precip. -- in
5:33 AM 8:44 PM
Waning Crescent, 1% visible
Pressure 29.92 in
Visibility 6.2 miles
Clouds
Heat Index 77 °F
Dew Point 51 °F
Humidity 51%
Rainfall 0.00 in
Snow Depth Not available.
UV 11.0 out of 12
Pollen Not available.
Air Quality Not available.
Flu Activity Not available.
METAR YMLT 210200Z AUTO 33017KT 9999 // NCD 22/07 Q1013

More Conditions Fewer Conditions

Pressure 29.92 in
Visibility 6.2 miles
Clouds
Heat Index 77 °F
Dew Point 51 °F
Humidity 51%
Rainfall 0.00 in
Snow Depth Not available.
UV 11.0 out of 12
Pollen Not available.
Air Quality Not available.
Flu Activity Not available.
METAR YMLT 210200Z AUTO 33017KT 9999 // NCD 22/07 Q1013

More Conditions Fewer Conditions

10-Day Weather Forecast

Almanac

Astronomy

Dec. 21, 2014 Rise Set
Actual Time
Civil Twilight
Nautical Twilight
Astronomical Twilight
Moon
Length of Visible Light
Length of Day
Tomorrow will be .
, % of the Moon is Illuminated

Today's Extremes

Country Highs Country Lows

Community

WunderPhotos

Upload Photos

1,779,348 photos uploaded!

WunderBlogs® & News

Nearby

Air Quality

  Air Quality AQ Index Pollutant
Not available.

Snow Depth

Station Depth Elevation

Earthquake Activity

City Distance Mag. Time & Date
Minimum magnitude displayed is 2.5.

Coastal Water Temperatures

Place Temperature

Nearby Weather Stations